createdAt,value
2022-09-14T00:01:40.520Z,58.89
2022-09-14T00:04:18.152Z,58.86
2022-09-14T00:06:48.291Z,58.56
2022-09-14T00:09:24.120Z,58.80
2022-09-14T00:11:52.668Z,58.16
2022-09-14T00:14:20.425Z,58.24
2022-09-14T00:16:48.241Z,58.91
2022-09-14T00:19:26.863Z,59.16
2022-09-14T00:21:58.904Z,58.89
2022-09-14T00:24:34.896Z,59.10
2022-09-14T00:27:02.786Z,59.16
2022-09-14T00:29:31.673Z,58.88
2022-09-14T00:31:59.245Z,58.96
2022-09-14T00:34:27.759Z,58.80
2022-09-14T00:36:55.191Z,59.17
2022-09-14T00:39:24.919Z,59.39
2022-09-14T00:41:53.151Z,59.33
2022-09-14T00:44:20.167Z,59.71
2022-09-14T00:46:54.089Z,60.64
2022-09-14T00:49:39.309Z,60.58
2022-09-14T00:52:32.860Z,60.73
2022-09-14T00:55:12.499Z,62.03
2022-09-14T00:57:49.998Z,61.70
2022-09-14T01:00:28.387Z,61.44
2022-09-14T01:02:55.829Z,61.77
2022-09-14T01:06:04.936Z,62.59
2022-09-14T01:09:24.463Z,62.89
2022-09-14T01:12:45.252Z,62.28
2022-09-14T01:15:39.522Z,62.53
2022-09-14T01:18:29.401Z,62.41
2022-09-14T01:21:19.797Z,62.60
2022-09-14T01:24:38.005Z,62.95
2022-09-14T01:27:41.602Z,62.62
2022-09-14T01:30:19.465Z,61.78
2022-09-14T01:33:19.796Z,62.08
2022-09-14T01:36:01.304Z,63.23
2022-09-14T01:38:48.944Z,62.57
2022-09-14T01:41:25.951Z,62.41
2022-09-14T01:44:06.200Z,62.32
2022-09-14T01:46:50.604Z,63.29
2022-09-14T01:49:47.149Z,62.95
2022-09-14T01:52:42.818Z,63.11
2022-09-14T01:55:24.874Z,62.83
2022-09-14T01:58:10.416Z,63.43
2022-09-14T02:00:45.876Z,63.03
2022-09-14T02:03:55.542Z,62.70
2022-09-14T02:06:46.980Z,62.37
2022-09-14T02:09:22.754Z,63.60
2022-09-14T02:11:50.076Z,64.05
2022-09-14T02:14:17.389Z,63.62
2022-09-14T02:16:46.316Z,63.49
2022-09-14T02:19:14.476Z,63.04
2022-09-14T02:21:42.176Z,63.63
2022-09-14T02:24:12.346Z,63.14
2022-09-14T02:26:42.128Z,63.42
2022-09-14T02:29:09.464Z,63.76
2022-09-14T02:32:35.883Z,64.06
2022-09-14T02:35:39.888Z,64.00
2022-09-14T02:38:56.414Z,63.79
2022-09-14T02:41:51.116Z,63.96
2022-09-14T02:44:55.671Z,63.89
2022-09-14T02:48:33.852Z,63.99
2022-09-14T02:51:38.911Z,63.89
2022-09-14T02:54:22.308Z,63.85
2022-09-14T02:56:49.983Z,63.74
2022-09-14T02:59:18.594Z,63.79
2022-09-14T03:01:46.184Z,64.38
2022-09-14T03:04:15.136Z,63.78
2022-09-14T03:06:42.431Z,64.00
2022-09-14T03:09:09.785Z,64.27
2022-09-14T03:11:39.783Z,65.03
2022-09-14T03:14:07.077Z,64.71
2022-09-14T03:16:34.401Z,64.58
2022-09-14T03:19:01.785Z,64.53
2022-09-14T03:21:29.044Z,64.24
2022-09-14T03:23:57.821Z,64.56
2022-09-14T03:26:29.144Z,64.44
2022-09-14T03:28:59.387Z,64.76
2022-09-14T03:31:27.926Z,64.59
2022-09-14T03:33:58.584Z,64.64
2022-09-14T03:36:30.534Z,64.79
2022-09-14T03:39:02.971Z,65.11
2022-09-14T03:41:30.584Z,65.44
2022-09-14T03:43:57.845Z,64.94
2022-09-14T03:46:26.442Z,65.27
2022-09-14T03:48:55.992Z,65.12
2022-09-14T03:51:24.001Z,65.38
2022-09-14T03:53:51.343Z,65.04
2022-09-14T03:56:23.345Z,65.91
2022-09-14T03:58:51.292Z,65.52
2022-09-14T04:01:23.669Z,65.47
2022-09-14T04:03:51.220Z,65.88
2022-09-14T04:06:19.750Z,65.90
2022-09-14T04:08:47.931Z,65.85
2022-09-14T04:11:24.350Z,66.15
2022-09-14T04:13:53.031Z,66.50
2022-09-14T04:16:23.234Z,66.82
2022-09-14T04:18:50.551Z,66.53
2022-09-14T04:21:24.725Z,66.33
2022-09-14T04:24:15.595Z,66.32
2022-09-14T04:26:45.775Z,66.85
2022-09-14T04:29:14.575Z,67.09
2022-09-14T04:31:42.089Z,67.28
2022-09-14T04:34:13.854Z,67.56
2022-09-14T04:36:41.264Z,67.04
2022-09-14T04:39:13.805Z,67.62
2022-09-14T04:41:41.323Z,67.47
2022-09-14T04:44:08.676Z,67.59
2022-09-14T04:46:37.006Z,67.86
2022-09-14T04:49:05.084Z,68.48
2022-09-14T04:51:35.145Z,67.90
2022-09-14T04:54:05.803Z,68.07
2022-09-14T04:56:37.050Z,68.23
2022-09-14T04:59:05.941Z,68.35
2022-09-14T05:01:42.421Z,68.16
2022-09-14T05:04:11.789Z,68.54
2022-09-14T05:06:42.787Z,68.65
2022-09-14T05:09:18.236Z,68.39
2022-09-14T05:11:46.318Z,68.50
2022-09-14T05:14:14.688Z,68.51
2022-09-14T05:16:44.473Z,68.68
2022-09-14T05:19:17.984Z,68.71
2022-09-14T05:21:46.760Z,68.20
2022-09-14T05:24:18.294Z,68.48
2022-09-14T05:26:46.980Z,68.52
2022-09-14T05:29:18.881Z,68.47
2022-09-14T05:31:47.089Z,68.09
2022-09-14T05:34:14.679Z,68.49
2022-09-14T05:36:42.569Z,68.29
2022-09-14T05:39:10.675Z,68.09
2022-09-14T05:41:38.368Z,68.23
2022-09-14T05:44:06.745Z,68.25
2022-09-14T05:46:34.559Z,68.92
2022-09-14T05:49:01.952Z,68.72
2022-09-14T05:51:29.511Z,68.71
2022-09-14T05:53:59.005Z,68.75
2022-09-14T05:56:30.036Z,68.94
2022-09-14T05:58:58.302Z,68.38
2022-09-14T06:01:32.612Z,68.36
2022-09-14T06:04:02.993Z,68.39
2022-09-14T06:06:33.018Z,68.89
2022-09-14T06:09:01.419Z,68.43
2022-09-14T06:11:38.209Z,67.81
2022-09-14T06:14:06.512Z,67.84
2022-09-14T06:16:35.247Z,68.16
2022-09-14T06:19:02.763Z,67.97
2022-09-14T06:21:35.511Z,68.04
2022-09-14T06:24:03.693Z,67.59
2022-09-14T06:26:31.376Z,67.43
2022-09-14T06:28:58.675Z,67.43
2022-09-14T06:31:31.096Z,67.16
2022-09-14T06:33:58.636Z,66.96
2022-09-14T06:36:28.874Z,66.94
2022-09-14T06:38:58.706Z,66.85
2022-09-14T06:41:32.594Z,66.73
2022-09-14T06:44:05.120Z,66.53
2022-09-14T06:46:35.191Z,66.72
2022-09-14T06:49:23.103Z,66.76
2022-09-14T06:51:51.427Z,66.79
2022-09-14T06:54:19.104Z,66.49
2022-09-14T06:56:47.400Z,65.64
2022-09-14T06:59:17.826Z,65.51
2022-09-14T07:01:45.723Z,65.59
2022-09-14T07:04:15.304Z,65.24
2022-09-14T07:06:48.120Z,64.91
2022-09-14T07:09:18.968Z,65.48
2022-09-14T07:11:47.205Z,65.24
2022-09-14T07:14:16.779Z,64.94
2022-09-14T07:16:44.092Z,65.28
2022-09-14T07:19:14.776Z,64.55
2022-09-14T07:21:42.929Z,64.76
2022-09-14T07:24:14.829Z,64.33
2022-09-14T07:26:43.073Z,64.13
2022-09-14T07:29:20.043Z,64.83
2022-09-14T07:31:54.296Z,64.37
2022-09-14T07:34:21.895Z,64.37
2022-09-14T07:36:49.175Z,64.35
2022-09-14T07:39:18.297Z,63.74
2022-09-14T07:41:46.084Z,63.98
2022-09-14T07:44:17.913Z,64.01
2022-09-14T07:46:47.153Z,63.82
2022-09-14T07:49:17.329Z,63.85
2022-09-14T07:51:45.850Z,63.87
2022-09-14T07:54:18.114Z,63.85
2022-09-14T07:56:46.054Z,64.25
2022-09-14T07:59:34.962Z,64.26
2022-09-14T08:02:02.463Z,64.45
2022-09-14T08:04:29.852Z,64.17
2022-09-14T08:06:57.932Z,63.92
2022-09-14T08:09:25.816Z,63.68
2022-09-14T08:11:53.081Z,63.56
2022-09-14T08:14:20.596Z,63.73
2022-09-14T08:16:47.942Z,63.27
2022-09-14T08:19:19.746Z,63.25
2022-09-14T08:21:48.091Z,63.17
2022-09-14T08:24:21.295Z,62.86
2022-09-14T08:26:50.373Z,62.57
2022-09-14T08:29:19.272Z,62.54
2022-09-14T08:31:48.536Z,61.85
2022-09-14T08:34:17.263Z,62.10
2022-09-14T08:36:47.832Z,62.21
2022-09-14T08:39:17.125Z,62.13
2022-09-14T08:41:49.132Z,61.39
2022-09-14T08:44:55.561Z,61.27
2022-09-14T08:47:32.294Z,62.06
2022-09-14T08:50:10.716Z,61.92
2022-09-14T08:52:53.543Z,65.18
2022-09-14T08:56:00.398Z,65.71
2022-09-14T08:59:05.116Z,70.42
2022-09-14T09:02:07.521Z,69.07
2022-09-14T09:05:31.632Z,70.22
2022-09-14T09:08:54.383Z,69.94
2022-09-14T09:11:28.458Z,70.49
2022-09-14T09:13:56.713Z,70.03
2022-09-14T09:16:27.195Z,69.88
2022-09-14T09:19:07.621Z,70.37
2022-09-14T09:21:48.173Z,70.55
2022-09-14T09:24:45.708Z,69.69
2022-09-14T09:27:16.205Z,69.74
2022-09-14T09:29:44.051Z,69.36
2022-09-14T09:32:25.810Z,71.90
2022-09-14T09:34:53.347Z,71.00
2022-09-14T09:37:24.444Z,70.45
2022-09-14T09:39:52.090Z,71.42
2022-09-14T09:42:28.238Z,71.26
2022-09-14T09:45:04.444Z,69.59
2022-09-14T09:47:42.231Z,69.21
2022-09-14T09:50:21.980Z,69.94
2022-09-14T09:53:02.082Z,69.27
2022-09-14T09:55:39.923Z,69.25
2022-09-14T09:58:39.273Z,67.86
2022-09-14T10:01:35.972Z,68.91
2022-09-14T10:04:28.776Z,68.14
2022-09-14T10:06:57.797Z,68.84
2022-09-14T10:09:28.539Z,67.68
2022-09-14T10:12:05.219Z,67.39
2022-09-14T10:14:37.626Z,66.44
2022-09-14T10:17:22.032Z,67.26
2022-09-14T10:19:54.881Z,66.92
2022-09-14T10:22:37.915Z,64.59
2022-09-14T10:25:27.892Z,66.15
2022-09-14T10:27:54.915Z,66.85
2022-09-14T10:30:49.317Z,66.01
2022-09-14T10:33:18.437Z,65.40
2022-09-14T10:36:37.015Z,65.80
2022-09-14T10:39:28.113Z,66.30
2022-09-14T10:42:34.365Z,64.63
2022-09-14T10:45:39.991Z,63.60
2022-09-14T10:48:25.281Z,63.52
2022-09-14T10:51:37.980Z,61.32
2022-09-14T10:54:54.336Z,62.74
2022-09-14T10:58:34.872Z,64.32
2022-09-14T11:02:04.486Z,61.50
2022-09-14T11:05:27.141Z,61.21
2022-09-14T11:08:32.004Z,62.02
2022-09-14T11:11:41.241Z,62.15
2022-09-14T11:15:00.089Z,62.33
2022-09-14T11:17:59.517Z,59.64
2022-09-14T11:20:45.069Z,60.66
2022-09-14T11:23:49.680Z,60.16
2022-09-14T11:27:25.304Z,61.92
2022-09-14T11:30:06.127Z,63.74
2022-09-14T11:32:52.732Z,64.34
2022-09-14T11:35:29.169Z,64.24
2022-09-14T11:38:07.505Z,64.95
2022-09-14T11:40:55.312Z,63.92
2022-09-14T11:43:52.616Z,63.79
2022-09-14T11:47:02.103Z,62.31
2022-09-14T11:50:02.540Z,62.85
2022-09-14T11:52:32.308Z,62.90
2022-09-14T11:55:03.032Z,61.33
2022-09-14T11:57:33.836Z,61.25
2022-09-14T12:01:26.794Z,60.80
2022-09-14T12:04:16.735Z,60.38
2022-09-14T12:06:51.065Z,59.80
2022-09-14T12:09:20.744Z,60.02
2022-09-14T12:11:54.773Z,60.12
2022-09-14T12:14:36.578Z,60.18
2022-09-14T12:17:40.604Z,59.51
2022-09-14T12:20:37.444Z,59.83
2022-09-14T12:23:39.836Z,61.70
2022-09-14T12:26:06.949Z,62.73
2022-09-14T12:28:39.291Z,62.80
2022-09-14T12:31:29.972Z,62.29
2022-09-14T12:34:32.231Z,62.06
2022-09-14T12:37:26.448Z,63.24
2022-09-14T12:40:33.917Z,62.53
2022-09-14T12:43:35.281Z,62.20
2022-09-14T12:46:08.943Z,63.00
2022-09-14T12:48:53.125Z,64.64
2022-09-14T12:51:28.913Z,65.26
2022-09-14T12:53:59.412Z,66.37
2022-09-14T12:57:01.317Z,66.75
2022-09-14T13:00:15.368Z,68.04
2022-09-14T13:03:47.451Z,67.40
2022-09-14T13:06:15.137Z,68.07
2022-09-14T13:08:57.912Z,67.18
2022-09-14T13:11:41.467Z,68.26
2022-09-14T13:14:19.984Z,67.37
2022-09-14T13:16:51.948Z,67.95
2022-09-14T13:19:31.154Z,68.53
2022-09-14T13:22:02.578Z,69.04
2022-09-14T13:24:44.605Z,68.63
2022-09-14T13:27:38.808Z,69.30
2022-09-14T13:30:24.592Z,68.51
2022-09-14T13:32:56.641Z,68.71
2022-09-14T13:35:43.703Z,68.48
2022-09-14T13:38:29.476Z,67.55
2022-09-14T13:41:17.409Z,66.87
2022-09-14T13:43:47.379Z,66.46
2022-09-14T13:46:20.155Z,65.64
2022-09-14T13:48:48.737Z,64.72
2022-09-14T13:51:16.697Z,64.96
2022-09-14T13:53:58.510Z,62.85
2022-09-14T13:56:35.140Z,64.05
2022-09-14T13:59:22.858Z,63.09
2022-09-14T14:02:00.743Z,63.88
2022-09-14T14:04:39.326Z,63.37
2022-09-14T14:07:32.864Z,63.34
2022-09-14T14:10:03.974Z,59.80
2022-09-14T14:12:39.355Z,59.73
2022-09-14T14:15:13.729Z,57.80
2022-09-14T14:17:42.120Z,58.43
2022-09-14T14:20:24.549Z,58.01
2022-09-14T14:23:08.497Z,58.35
2022-09-14T14:25:54.348Z,58.95
2022-09-14T14:28:30.542Z,60.04
2022-09-14T14:31:07.734Z,59.42
2022-09-14T14:33:45.139Z,60.44
2022-09-14T14:36:13.103Z,61.05
2022-09-14T14:38:42.935Z,61.15
2022-09-14T14:41:21.125Z,61.41
2022-09-14T14:43:50.803Z,62.05
2022-09-14T14:46:18.306Z,62.66
2022-09-14T14:48:45.656Z,62.73
2022-09-14T14:51:15.339Z,64.95
2022-09-14T14:53:43.487Z,63.90
2022-09-14T14:56:14.520Z,64.63
2022-09-14T14:58:47.714Z,64.77
2022-09-14T15:01:17.189Z,66.19
2022-09-14T15:03:44.589Z,66.98
2022-09-14T15:06:24.631Z,65.14
2022-09-14T15:08:57.005Z,68.26
2022-09-14T15:11:24.464Z,65.33
2022-09-14T15:13:51.773Z,66.63
2022-09-14T15:16:19.443Z,66.69
2022-09-14T15:18:47.101Z,65.31
2022-09-14T15:21:14.358Z,65.21
2022-09-14T15:23:42.192Z,64.79
2022-09-14T15:26:09.617Z,65.87
2022-09-14T15:28:38.588Z,66.35
2022-09-14T15:31:08.077Z,66.73
2022-09-14T15:33:35.493Z,66.17
2022-09-14T15:36:03.476Z,66.72
2022-09-14T15:38:30.846Z,66.39
2022-09-14T15:40:58.141Z,66.53
2022-09-14T15:43:25.421Z,66.29
2022-09-14T15:45:53.060Z,66.56
2022-09-14T15:48:20.378Z,66.62
2022-09-14T15:50:48.749Z,66.67
2022-09-14T15:53:18.358Z,66.43
2022-09-14T15:55:46.198Z,66.75
2022-09-14T15:58:13.617Z,66.01
2022-09-14T16:00:45.066Z,65.67
2022-09-14T16:03:13.024Z,65.66
2022-09-14T16:05:40.621Z,65.54
2022-09-14T16:08:07.992Z,65.98
2022-09-14T16:10:35.353Z,66.45
2022-09-14T16:13:02.662Z,67.64
2022-09-14T16:15:30.004Z,67.20
2022-09-14T16:17:57.340Z,66.88
2022-09-14T16:20:24.671Z,67.52
2022-09-14T16:22:52.454Z,68.28
2022-09-14T16:25:19.891Z,68.20
2022-09-14T16:27:48.882Z,68.66
2022-09-14T16:30:16.834Z,69.97
2022-09-14T16:32:44.739Z,69.68
2022-09-14T16:35:13.637Z,69.36
2022-09-14T16:37:40.918Z,69.36
2022-09-14T16:40:09.391Z,69.44
2022-09-14T16:42:36.825Z,69.38
2022-09-14T16:45:05.107Z,69.49
2022-09-14T16:47:32.416Z,69.64
2022-09-14T16:50:00.052Z,69.20
2022-09-14T16:52:28.601Z,70.04
2022-09-14T16:54:56.356Z,70.07
2022-09-14T16:57:25.452Z,69.94
2022-09-14T16:59:52.732Z,70.13
2022-09-14T17:02:20.114Z,70.48
2022-09-14T17:04:47.414Z,69.71
2022-09-14T17:07:14.857Z,70.26
2022-09-14T17:09:42.937Z,70.13
2022-09-14T17:12:10.252Z,70.07
2022-09-14T17:14:37.600Z,71.16
2022-09-14T17:17:04.926Z,70.89
2022-09-14T17:19:34.160Z,70.34
2022-09-14T17:22:03.803Z,70.72
2022-09-14T17:24:31.258Z,70.39
2022-09-14T17:26:58.773Z,70.93
2022-09-14T17:29:26.174Z,70.93
2022-09-14T17:31:55.816Z,71.35
2022-09-14T17:34:23.499Z,71.64
2022-09-14T17:36:50.852Z,72.18
2022-09-14T17:39:19.062Z,72.31
2022-09-14T17:41:46.546Z,72.65
2022-09-14T17:44:15.940Z,72.99
2022-09-14T17:46:52.156Z,72.85
2022-09-14T17:49:22.888Z,73.28
2022-09-14T17:51:51.136Z,74.18
2022-09-14T17:54:20.121Z,75.22
2022-09-14T17:56:47.888Z,76.76
2022-09-14T17:59:20.658Z,76.37
2022-09-14T18:01:49.414Z,76.14
2022-09-14T18:04:17.092Z,76.09
2022-09-14T18:06:49.624Z,75.63
2022-09-14T18:09:24.275Z,75.49
2022-09-14T18:11:56.099Z,76.12
2022-09-14T18:14:24.530Z,75.36
2022-09-14T18:16:51.880Z,75.31
2022-09-14T18:19:19.252Z,76.01
2022-09-14T18:21:51.564Z,75.89
2022-09-14T18:24:20.661Z,73.19
2022-09-14T18:26:48.706Z,72.15
2022-09-14T18:29:21.133Z,70.85
2022-09-14T18:31:48.647Z,70.63
2022-09-14T18:34:16.634Z,71.51
2022-09-14T18:36:45.837Z,71.18
2022-09-14T18:39:13.957Z,69.66
2022-09-14T18:41:41.445Z,69.25
2022-09-14T18:44:08.712Z,69.10
2022-09-14T18:46:37.143Z,68.17
2022-09-14T18:49:04.445Z,67.14
2022-09-14T18:51:33.108Z,67.14
2022-09-14T18:54:06.813Z,65.86
2022-09-14T18:56:37.006Z,66.21
2022-09-14T18:59:10.571Z,66.49
2022-09-14T19:01:39.260Z,64.46
2022-09-14T19:04:09.764Z,65.41
2022-09-14T19:06:39.091Z,66.01
2022-09-14T19:09:07.680Z,65.61
2022-09-14T19:11:36.134Z,61.60
2022-09-14T19:14:10.526Z,64.51
2022-09-14T19:16:41.271Z,66.60
2022-09-14T19:19:12.988Z,65.61
2022-09-14T19:21:40.824Z,63.51
2022-09-14T19:24:16.997Z,64.68
2022-09-14T19:26:50.903Z,62.54
2022-09-14T19:29:24.508Z,61.03
2022-09-14T19:31:53.358Z,65.02
2022-09-14T19:34:24.832Z,61.92
2022-09-14T19:36:53.842Z,61.67
2022-09-14T19:39:25.795Z,58.46
2022-09-14T19:41:53.402Z,62.13
2022-09-14T19:44:23.131Z,61.98
2022-09-14T19:46:51.159Z,64.06
2022-09-14T19:49:24.603Z,64.96
2022-09-14T19:51:53.771Z,64.50
2022-09-14T19:54:21.359Z,64.82
2022-09-14T19:56:48.657Z,64.66
2022-09-14T19:59:19.157Z,63.98
2022-09-14T20:01:47.007Z,63.93
2022-09-14T20:04:15.793Z,63.61
2022-09-14T20:06:47.152Z,63.73
2022-09-14T20:09:23.247Z,66.86
2022-09-14T20:11:53.141Z,65.43
2022-09-14T20:14:24.875Z,67.24
2022-09-14T20:16:58.843Z,64.43
2022-09-14T20:19:29.879Z,64.28
2022-09-14T20:21:58.001Z,64.62
2022-09-14T20:24:30.962Z,65.85
2022-09-14T20:27:00.881Z,66.15
2022-09-14T20:29:31.975Z,64.44
2022-09-14T20:32:00.112Z,65.08
2022-09-14T20:34:27.559Z,65.04
2022-09-14T20:36:55.800Z,65.46
2022-09-14T20:39:24.413Z,65.98
2022-09-14T20:41:51.780Z,66.62
2022-09-14T20:44:22.295Z,67.53
2022-09-14T20:46:51.339Z,66.86
2022-09-14T20:49:23.299Z,67.01
2022-09-14T20:51:52.739Z,67.59
2022-09-14T20:54:20.508Z,68.01
2022-09-14T20:56:47.843Z,68.87
2022-09-14T20:59:19.423Z,68.58
2022-09-14T21:01:50.055Z,68.78
2022-09-14T21:04:22.355Z,68.01
2022-09-14T21:06:55.698Z,67.45
2022-09-14T21:09:26.002Z,68.42
2022-09-14T21:11:54.549Z,67.84
2022-09-14T21:14:22.749Z,68.41
2022-09-14T21:16:56.648Z,67.71
2022-09-14T21:19:28.565Z,67.93
2022-09-14T21:21:56.683Z,68.55
2022-09-14T21:24:25.507Z,67.95
2022-09-14T21:26:52.780Z,68.02
2022-09-14T21:29:23.892Z,69.45
2022-09-14T21:31:52.794Z,68.64
2022-09-14T21:34:20.468Z,69.45
2022-09-14T21:36:51.246Z,67.96
2022-09-14T21:39:24.671Z,68.05
2022-09-14T21:41:59.508Z,68.25
2022-09-14T21:44:34.329Z,68.52
2022-09-14T21:47:03.633Z,68.56
2022-09-14T21:49:31.425Z,69.22
2022-09-14T21:51:58.751Z,69.11
2022-09-14T21:54:27.082Z,69.71
2022-09-14T21:56:54.648Z,69.87
2022-09-14T21:59:23.107Z,69.84
2022-09-14T22:01:51.336Z,69.59
2022-09-14T22:04:24.231Z,69.71
2022-09-14T22:06:53.135Z,69.99
2022-09-14T22:09:27.116Z,70.55
2022-09-14T22:11:56.365Z,70.77
2022-09-14T22:14:28.839Z,70.26
2022-09-14T22:16:57.307Z,70.35
2022-09-14T22:19:30.507Z,70.52
2022-09-14T22:21:58.597Z,70.84
2022-09-14T22:24:38.200Z,71.13
2022-09-14T22:27:11.264Z,70.60
2022-09-14T22:29:40.836Z,69.98
2022-09-14T22:32:12.016Z,70.29
2022-09-14T22:34:41.513Z,70.84
2022-09-14T22:37:09.325Z,71.49
2022-09-14T22:39:37.947Z,70.90
2022-09-14T22:42:05.814Z,70.50
2022-09-14T22:44:33.085Z,71.34
2022-09-14T22:47:00.408Z,71.18
2022-09-14T22:49:27.688Z,70.34
2022-09-14T22:51:55.044Z,70.75
2022-09-14T22:54:22.385Z,70.60
2022-09-14T22:56:49.660Z,70.77
2022-09-14T22:59:16.925Z,70.72
2022-09-14T23:01:44.856Z,70.65
2022-09-14T23:04:14.428Z,71.20
2022-09-14T23:06:47.692Z,71.59
2022-09-14T23:09:22.225Z,71.38
2022-09-14T23:11:49.825Z,71.46
2022-09-14T23:14:17.693Z,72.27
2022-09-14T23:16:45.883Z,71.60
2022-09-14T23:19:18.212Z,70.90
2022-09-14T23:21:46.850Z,70.93
2022-09-14T23:24:14.953Z,71.18
2022-09-14T23:26:42.957Z,70.57
2022-09-14T23:29:16.751Z,70.51
2022-09-14T23:31:45.733Z,70.48
2022-09-14T23:34:13.420Z,69.16
2022-09-14T23:36:41.107Z,69.87
2022-09-14T23:39:08.745Z,69.42
2022-09-14T23:41:37.881Z,69.81
2022-09-14T23:44:05.158Z,69.49
2022-09-14T23:46:32.479Z,69.86
2022-09-14T23:48:59.757Z,70.44
2022-09-14T23:51:27.076Z,70.46
2022-09-14T23:53:54.409Z,71.19
2022-09-14T23:56:21.690Z,71.24
2022-09-14T23:58:49.167Z,72.20
